Time;durP1;ratioP1;P1;durP2;ratioP2;P2;SDS_P1;SDS_P2;PMS_P1;PMS_P2;Temp;Humidity;BMP_temperature;BMP_pressure;BME280_temperature;BME280_humidity;BME280_pressure;Samples;Min_cycle;Max_cycle;Signal;HPM_P1;HPM_P2
2022/12/14 00:01:40;;;;;;;50.40;29.75;;;;;;;;;;5034747;28;20064;-72
2022/12/14 00:04:06;;;;;;;46.53;28.00;;;;;;;;;;5035680;28;20045;-71
2022/12/14 00:06:32;;;;;;;48.25;28.42;;;;;;;;;;5039641;28;20052;-71
2022/12/14 00:09:03;;;;;;;49.95;30.15;;;;;;;;;;5038346;28;20045;-72
2022/12/14 00:11:29;;;;;;;50.30;29.35;;;;;;;;;;5039069;28;20496;-71
2022/12/14 00:13:59;;;;;;;49.78;28.05;;;;;;;;;;5043974;28;20087;-71
2022/12/14 00:16:26;;;;;;;48.83;28.33;;;;;;;;;;5044922;28;20148;-70
2022/12/14 00:18:54;;;;;;;49.65;28.83;;;;;;;;;;5044083;28;20435;-73
2022/12/14 00:21:20;;;;;;;47.80;28.58;;;;;;;;;;5044753;28;20041;-71
2022/12/14 00:23:47;;;;;;;49.35;28.60;;;;;;;;;;5044733;28;20053;-71
2022/12/14 00:26:16;;;;;;;54.22;29.58;;;;;;;;;;5045796;28;20114;-72
2022/12/14 00:28:42;;;;;;;55.33;31.27;;;;;;;;;;5047097;28;20050;-70
2022/12/14 00:31:09;;;;;;;53.67;30.58;;;;;;;;;;5044514;28;20041;-72
2022/12/14 00:33:35;;;;;;;52.58;30.30;;;;;;;;;;5035192;28;20044;-71
2022/12/14 00:36:02;;;;;;;53.15;30.00;;;;;;;;;;5029400;28;20102;-72
2022/12/14 00:38:28;;;;;;;51.10;29.13;;;;;;;;;;5045414;28;20057;-72
2022/12/14 00:40:54;;;;;;;53.83;30.02;;;;;;;;;;5044636;28;20037;-70
2022/12/14 00:43:21;;;;;;;52.10;29.13;;;;;;;;;;5043876;28;20091;-71
2022/12/14 00:45:47;;;;;;;50.95;28.20;;;;;;;;;;5044636;28;20056;-70
2022/12/14 00:48:13;;;;;;;51.45;28.48;;;;;;;;;;5044233;28;20045;-70
2022/12/14 00:50:40;;;;;;;53.25;28.63;;;;;;;;;;5043765;28;20102;-74
2022/12/14 00:53:06;;;;;;;53.30;28.88;;;;;;;;;;5044806;28;20042;-72
2022/12/14 00:55:39;;;;;;;52.70;29.33;;;;;;;;;;5044201;28;20042;-74
2022/12/14 00:58:06;;;;;;;51.92;28.75;;;;;;;;;;5049927;28;20083;-73
2022/12/14 01:00:32;;;;;;;56.10;29.92;;;;;;;;;;5046613;28;20091;-73
2022/12/14 01:02:58;;;;;;;52.78;29.98;;;;;;;;;;5044610;28;20041;-71
2022/12/14 01:05:24;;;;;;;52.17;28.58;;;;;;;;;;5044423;28;20135;-71
2022/12/14 01:07:50;;;;;;;49.47;29.30;;;;;;;;;;5043666;28;20052;-72
2022/12/14 01:10:16;;;;;;;51.80;29.08;;;;;;;;;;5043139;28;20045;-71
2022/12/14 01:12:42;;;;;;;52.63;29.55;;;;;;;;;;5044480;28;20059;-71
2022/12/14 01:15:08;;;;;;;56.08;30.60;;;;;;;;;;5044291;28;20068;-70
2022/12/14 01:17:34;;;;;;;56.20;28.65;;;;;;;;;;5045152;28;20453;-72
2022/12/14 01:20:00;;;;;;;53.38;28.77;;;;;;;;;;5042573;28;20124;-70
2022/12/14 01:22:26;;;;;;;50.78;29.27;;;;;;;;;;5046983;28;20559;-73
2022/12/14 01:24:52;;;;;;;54.67;29.67;;;;;;;;;;5045881;28;20044;-70
2022/12/14 01:27:18;;;;;;;44.58;26.25;;;;;;;;;;5036438;28;20052;-70
2022/12/14 01:29:44;;;;;;;48.17;26.50;;;;;;;;;;5040247;28;20477;-70
2022/12/14 01:32:10;;;;;;;52.08;29.00;;;;;;;;;;5043139;28;20093;-70
2022/12/14 01:34:36;;;;;;;51.55;28.52;;;;;;;;;;5040867;28;20294;-74
2022/12/14 01:37:02;;;;;;;47.83;27.08;;;;;;;;;;5042725;28;20086;-72
2022/12/14 01:39:28;;;;;;;49.50;27.67;;;;;;;;;;5045565;28;20111;-70
2022/12/14 01:41:54;;;;;;;49.53;28.00;;;;;;;;;;5043537;28;20132;-71
2022/12/14 01:44:20;;;;;;;52.55;28.63;;;;;;;;;;5047808;28;20055;-71
2022/12/14 01:46:52;;;;;;;50.65;28.42;;;;;;;;;;5042471;28;20053;-70
2022/12/14 01:49:22;;;;;;;51.90;28.85;;;;;;;;;;5039261;28;20045;-70
2022/12/14 01:51:53;;;;;;;47.97;26.90;;;;;;;;;;5043013;28;20045;-70
2022/12/14 01:54:19;;;;;;;48.40;28.00;;;;;;;;;;5028574;28;20049;-70
2022/12/14 01:56:46;;;;;;;47.25;26.85;;;;;;;;;;5044531;28;20128;-72
2022/12/14 01:59:16;;;;;;;49.90;27.05;;;;;;;;;;5043502;28;20048;-70
2022/12/14 02:01:42;;;;;;;47.65;26.38;;;;;;;;;;5044126;28;20040;-71
2022/12/14 02:04:08;;;;;;;45.03;26.30;;;;;;;;;;5044735;28;20131;-72
2022/12/14 02:06:37;;;;;;;44.92;26.63;;;;;;;;;;5044066;28;20458;-70
2022/12/14 02:09:08;;;;;;;51.08;27.60;;;;;;;;;;5044539;28;20045;-71
2022/12/14 02:11:46;;;;;;;53.33;26.90;;;;;;;;;;5044383;28;20442;-71
2022/12/14 02:14:12;;;;;;;49.92;28.02;;;;;;;;;;5045437;28;20087;-74
2022/12/14 02:16:39;;;;;;;47.42;27.50;;;;;;;;;;5041652;28;20041;-71
2022/12/14 02:19:05;;;;;;;53.17;28.80;;;;;;;;;;5029547;28;20036;-73
2022/12/14 02:21:37;;;;;;;49.75;28.27;;;;;;;;;;5042032;28;20568;-71
2022/12/14 02:24:41;;;;;;;39.70;21.90;;;;;;;;;;5042334;28;20122;-71
2022/12/14 02:27:10;;;;;;;45.92;26.40;;;;;;;;;;4985341;28;20042;-73
2022/12/14 02:29:55;;;;;;;49.60;27.73;;;;;;;;;;4984892;28;20049;-73
2022/12/14 02:32:41;;;;;;;49.00;27.95;;;;;;;;;;5017281;28;20045;-73
2022/12/14 02:35:26;;;;;;;50.78;27.90;;;;;;;;;;5043176;28;20099;-73
2022/12/14 02:38:11;;;;;;;48.00;25.80;;;;;;;;;;5042521;28;20049;-72
2022/12/14 02:40:40;;;;;;;49.53;26.35;;;;;;;;;;5043607;28;20513;-72
2022/12/14 02:43:20;;;;;;;46.47;26.17;;;;;;;;;;5041677;28;20041;-74
2022/12/14 02:45:49;;;;;;;46.88;25.33;;;;;;;;;;5045189;28;20110;-73
2022/12/14 02:48:17;;;;;;;43.78;25.15;;;;;;;;;;5027664;28;20487;-73
2022/12/14 02:50:50;;;;;;;46.22;25.90;;;;;;;;;;5046570;28;20044;-69
2022/12/14 02:53:22;;;;;;;46.80;25.98;;;;;;;;;;5047636;28;20059;-73
2022/12/14 02:55:52;;;;;;;48.47;26.63;;;;;;;;;;5040487;28;20131;-72
2022/12/14 02:58:32;;;;;;;50.85;27.50;;;;;;;;;;5034918;28;20067;-70
2022/12/14 03:00:59;;;;;;;47.50;25.80;;;;;;;;;;5049119;28;20535;-70
2022/12/14 03:03:25;;;;;;;52.38;26.35;;;;;;;;;;5047906;28;20143;-71
2022/12/14 03:05:55;;;;;;;49.40;27.60;;;;;;;;;;5051973;28;20068;-70
2022/12/14 03:08:21;;;;;;;52.78;26.67;;;;;;;;;;5046763;28;20045;-70
2022/12/14 03:10:53;;;;;;;46.80;25.25;;;;;;;;;;5044022;28;20080;-73
2022/12/14 03:13:21;;;;;;;51.15;27.95;;;;;;;;;;5045874;28;20064;-71
2022/12/14 03:15:52;;;;;;;53.42;28.25;;;;;;;;;;5048207;28;20069;-74
2022/12/14 03:18:19;;;;;;;47.22;25.83;;;;;;;;;;5047074;28;20535;-74
2022/12/14 03:20:47;;;;;;;50.55;27.45;;;;;;;;;;5046191;28;20060;-71
2022/12/14 03:23:19;;;;;;;47.35;26.35;;;;;;;;;;5046837;28;20136;-73
2022/12/14 03:25:47;;;;;;;47.53;26.20;;;;;;;;;;5042980;28;20103;-73
2022/12/14 03:28:13;;;;;;;46.70;25.77;;;;;;;;;;5046288;28;20041;-73
2022/12/14 03:30:41;;;;;;;50.65;26.08;;;;;;;;;;5048659;28;20041;-73
2022/12/14 03:33:10;;;;;;;48.38;26.73;;;;;;;;;;5045341;28;20037;-72
2022/12/14 03:35:42;;;;;;;46.38;25.15;;;;;;;;;;5043607;28;20053;-71
2022/12/14 03:38:16;;;;;;;49.50;25.83;;;;;;;;;;5045037;28;20052;-72
2022/12/14 03:40:45;;;;;;;56.88;26.40;;;;;;;;;;5046985;28;20041;-73
2022/12/14 03:43:16;;;;;;;48.20;25.98;;;;;;;;;;5045190;28;20431;-73
2022/12/14 03:45:57;;;;;;;46.85;24.55;;;;;;;;;;5045641;28;20047;-73
2022/12/14 03:48:29;;;;;;;42.60;25.05;;;;;;;;;;5046109;28;20126;-72
2022/12/14 03:51:02;;;;;;;45.88;25.30;;;;;;;;;;5047833;28;20514;-72
2022/12/14 03:53:37;;;;;;;46.72;25.33;;;;;;;;;;5047002;28;20132;-74
2022/12/14 03:56:03;;;;;;;43.25;24.17;;;;;;;;;;5042513;28;20522;-72
2022/12/14 03:58:51;;;;;;;39.45;23.13;;;;;;;;;;5046151;28;20040;-72
2022/12/14 04:01:21;;;;;;;46.75;23.95;;;;;;;;;;5045843;28;20049;-72
2022/12/14 04:03:56;;;;;;;45.97;23.90;;;;;;;;;;5046929;28;20041;-73
2022/12/14 04:06:33;;;;;;;45.67;25.20;;;;;;;;;;5044741;28;20057;-73
2022/12/14 04:09:07;;;;;;;45.92;24.75;;;;;;;;;;5044875;28;20048;-73
2022/12/14 04:20:05;;;;;;;42.50;23.15;;;;;;;;;;5044961;28;20040;-72
2022/12/14 04:22:33;;;;;;;43.30;23.05;;;;;;;;;;5043002;28;20059;-73
2022/12/14 04:31:12;;;;;;;42.83;23.83;;;;;;;;;;5044185;28;20037;-73
2022/12/14 04:33:46;;;;;;;42.53;22.90;;;;;;;;;;5029792;28;20041;-73
2022/12/14 04:36:21;;;;;;;46.65;23.75;;;;;;;;;;5044582;28;20044;-72
2022/12/14 04:38:50;;;;;;;48.17;24.38;;;;;;;;;;5028763;28;20160;-73
2022/12/14 04:41:19;;;;;;;49.30;24.98;;;;;;;;;;5045294;28;20068;-73
2022/12/14 04:43:46;;;;;;;48.63;24.88;;;;;;;;;;5043364;28;20087;-73
2022/12/14 04:46:17;;;;;;;46.85;24.58;;;;;;;;;;5047563;28;20045;-71
2022/12/14 04:48:49;;;;;;;42.63;24.50;;;;;;;;;;5044461;28;20047;-73
2022/12/14 04:51:19;;;;;;;46.90;23.97;;;;;;;;;;5045384;28;20095;-70
2022/12/14 04:53:47;;;;;;;46.03;25.38;;;;;;;;;;5044381;28;20041;-73
2022/12/14 04:56:23;;;;;;;49.65;25.17;;;;;;;;;;5043506;28;20053;-73
2022/12/14 04:58:49;;;;;;;53.40;26.15;;;;;;;;;;5044512;28;20068;-72
2022/12/14 05:01:33;;;;;;;48.28;24.42;;;;;;;;;;5045066;28;20435;-72
2022/12/14 05:04:02;;;;;;;50.42;24.60;;;;;;;;;;5043268;28;20082;-72
2022/12/14 05:06:48;;;;;;;50.42;24.52;;;;;;;;;;5043572;28;20095;-73
2022/12/14 05:09:18;;;;;;;45.80;23.17;;;;;;;;;;5045084;28;20041;-73
2022/12/14 05:11:53;;;;;;;44.47;23.17;;;;;;;;;;5044179;28;20053;-73
2022/12/14 05:14:24;;;;;;;44.78;23.38;;;;;;;;;;5044307;28;20056;-72
2022/12/14 05:16:50;;;;;;;44.35;23.52;;;;;;;;;;5043247;28;20045;-73
2022/12/14 05:19:16;;;;;;;43.83;21.70;;;;;;;;;;5046234;28;20344;-73
2022/12/14 05:21:48;;;;;;;39.22;20.83;;;;;;;;;;5043514;28;20048;-71
2022/12/14 05:24:14;;;;;;;43.40;22.88;;;;;;;;;;5026398;28;20045;-72
2022/12/14 05:26:40;;;;;;;47.33;23.30;;;;;;;;;;5044141;28;20164;-73
2022/12/14 05:29:06;;;;;;;41.08;22.75;;;;;;;;;;5045509;28;20045;-72
2022/12/14 05:31:32;;;;;;;37.35;20.88;;;;;;;;;;5044215;28;20045;-72
2022/12/14 05:33:58;;;;;;;38.15;20.02;;;;;;;;;;5043808;28;20041;-73
2022/12/14 05:36:24;;;;;;;37.05;19.23;;;;;;;;;;5043170;28;20105;-72
2022/12/14 05:38:50;;;;;;;37.35;20.42;;;;;;;;;;5043462;28;20045;-72
2022/12/14 05:41:16;;;;;;;37.30;20.10;;;;;;;;;;5054600;28;20044;-72
2022/12/14 05:43:42;;;;;;;35.90;19.42;;;;;;;;;;5039435;28;20064;-72
2022/12/14 05:46:10;;;;;;;41.05;21.95;;;;;;;;;;5035927;28;20044;-71
2022/12/14 05:48:36;;;;;;;38.45;21.20;;;;;;;;;;5034817;28;20041;-73
2022/12/14 05:51:06;;;;;;;39.65;21.05;;;;;;;;;;5051846;28;20053;-73
2022/12/14 05:53:33;;;;;;;40.33;20.63;;;;;;;;;;5037575;28;20496;-74
2022/12/14 05:55:59;;;;;;;39.20;21.08;;;;;;;;;;5018062;28;20075;-71
2022/12/14 05:58:25;;;;;;;40.60;21.85;;;;;;;;;;5036026;28;20472;-72
2022/12/14 06:00:51;;;;;;;42.13;22.73;;;;;;;;;;5036515;28;21154;-74
2022/12/14 06:03:17;;;;;;;43.63;21.98;;;;;;;;;;5034018;28;20089;-73
2022/12/14 06:05:43;;;;;;;46.78;23.75;;;;;;;;;;5035355;28;21270;-71
2022/12/14 06:08:09;;;;;;;43.97;21.55;;;;;;;;;;5037318;28;20052;-72
2022/12/14 06:10:35;;;;;;;40.65;22.60;;;;;;;;;;5035248;28;20182;-72
2022/12/14 06:13:01;;;;;;;40.90;21.25;;;;;;;;;;5021903;28;20469;-73
2022/12/14 06:15:27;;;;;;;40.90;21.58;;;;;;;;;;5040246;28;20052;-73
2022/12/14 06:17:53;;;;;;;42.58;21.83;;;;;;;;;;5029811;28;20204;-73
2022/12/14 06:20:19;;;;;;;44.83;23.50;;;;;;;;;;5038428;28;20048;-73
2022/12/14 06:22:45;;;;;;;43.80;21.52;;;;;;;;;;5034283;28;20056;-71
2022/12/14 06:25:12;;;;;;;37.53;20.10;;;;;;;;;;5047053;28;20052;-74
2022/12/14 06:27:38;;;;;;;41.45;22.25;;;;;;;;;;5036424;28;20037;-73
2022/12/14 06:30:04;;;;;;;45.78;22.25;;;;;;;;;;5037252;28;20520;-74
2022/12/14 06:32:30;;;;;;;42.85;21.52;;;;;;;;;;5031061;28;20045;-73
2022/12/14 06:34:56;;;;;;;46.17;22.33;;;;;;;;;;5036020;28;20041;-73
2022/12/14 06:37:22;;;;;;;45.25;22.67;;;;;;;;;;5039519;28;20111;-72
2022/12/14 06:39:49;;;;;;;42.22;22.60;;;;;;;;;;5041533;28;20052;-72
2022/12/14 06:42:14;;;;;;;46.28;22.25;;;;;;;;;;5042564;28;20060;-69
2022/12/14 06:44:40;;;;;;;42.17;22.95;;;;;;;;;;5027522;28;20642;-70
2022/12/14 06:47:06;;;;;;;47.33;23.52;;;;;;;;;;5044369;28;20041;-72
2022/12/14 06:49:32;;;;;;;49.10;23.58;;;;;;;;;;5045170;28;20037;-71
2022/12/14 06:51:58;;;;;;;46.42;22.95;;;;;;;;;;5044730;28;20052;-71
2022/12/14 06:54:24;;;;;;;41.88;22.20;;;;;;;;;;5042475;28;20132;-72
2022/12/14 06:56:50;;;;;;;43.97;22.40;;;;;;;;;;5041731;28;20059;-71
2022/12/14 06:59:16;;;;;;;47.55;24.05;;;;;;;;;;5043016;28;20068;-71
2022/12/14 07:01:43;;;;;;;50.15;24.00;;;;;;;;;;5043806;28;20044;-71
2022/12/14 07:04:09;;;;;;;51.05;24.75;;;;;;;;;;5044604;28;20122;-71
2022/12/14 07:06:36;;;;;;;47.95;23.65;;;;;;;;;;5040997;28;20045;-74
2022/12/14 07:09:03;;;;;;;43.55;23.13;;;;;;;;;;5043521;28;20068;-73
2022/12/14 07:11:30;;;;;;;46.35;23.48;;;;;;;;;;5043074;28;20095;-72
2022/12/14 07:13:56;;;;;;;48.35;24.38;;;;;;;;;;5044250;28;20049;-73
2022/12/14 07:16:24;;;;;;;43.58;23.30;;;;;;;;;;5042993;28;20053;-73
2022/12/14 07:18:51;;;;;;;46.33;21.98;;;;;;;;;;5039419;28;20055;-69
2022/12/14 07:21:18;;;;;;;46.30;23.65;;;;;;;;;;5032389;28;20048;-72
2022/12/14 07:23:45;;;;;;;43.30;23.13;;;;;;;;;;5039875;28;20403;-71
2022/12/14 07:26:25;;;;;;;47.78;23.38;;;;;;;;;;5016761;28;20048;-69
2022/12/14 07:28:51;;;;;;;47.05;23.27;;;;;;;;;;5041751;28;20110;-70
2022/12/14 07:31:18;;;;;;;42.42;22.50;;;;;;;;;;5048039;28;20037;-70
2022/12/14 07:33:44;;;;;;;47.28;23.25;;;;;;;;;;5043766;28;20113;-71
2022/12/14 07:36:11;;;;;;;44.67;23.42;;;;;;;;;;5039750;28;20462;-70
2022/12/14 07:38:38;;;;;;;45.60;22.55;;;;;;;;;;5047706;28;20087;-70
2022/12/14 07:41:12;;;;;;;46.80;23.75;;;;;;;;;;5047887;28;20037;-70
2022/12/14 07:43:39;;;;;;;46.47;22.20;;;;;;;;;;5042291;28;20047;-70
2022/12/14 07:46:06;;;;;;;45.53;22.83;;;;;;;;;;5044464;28;20070;-71
2022/12/14 07:48:33;;;;;;;40.80;20.58;;;;;;;;;;5041549;28;20040;-70
2022/12/14 07:51:03;;;;;;;41.75;21.17;;;;;;;;;;5040853;28;20052;-70
2022/12/14 07:53:29;;;;;;;48.63;22.83;;;;;;;;;;5028111;28;20496;-70
2022/12/14 07:55:55;;;;;;;41.08;21.80;;;;;;;;;;5044129;28;20124;-70
2022/12/14 07:58:21;;;;;;;42.95;21.77;;;;;;;;;;5045166;28;20132;-74
2022/12/14 08:00:47;;;;;;;41.75;21.63;;;;;;;;;;5044440;28;20045;-73
2022/12/14 08:03:13;;;;;;;48.67;23.10;;;;;;;;;;5042909;28;20060;-71
2022/12/14 08:05:40;;;;;;;52.25;23.25;;;;;;;;;;5034824;28;20056;-70
2022/12/14 08:08:06;;;;;;;45.05;22.80;;;;;;;;;;5035829;28;20160;-70
2022/12/14 08:10:32;;;;;;;41.45;21.58;;;;;;;;;;5040184;28;20045;-72
2022/12/14 08:12:58;;;;;;;48.67;22.42;;;;;;;;;;5052194;28;20061;-69
2022/12/14 08:15:24;;;;;;;42.85;22.80;;;;;;;;;;5034660;28;20514;-73
2022/12/14 08:17:50;;;;;;;43.38;22.80;;;;;;;;;;5037318;28;20499;-71
2022/12/14 08:20:16;;;;;;;45.78;23.40;;;;;;;;;;5041770;28;20044;-72
2022/12/14 08:22:42;;;;;;;46.50;23.52;;;;;;;;;;5043261;28;21757;-73
2022/12/14 08:25:08;;;;;;;49.50;23.85;;;;;;;;;;5044276;28;20045;-72
2022/12/14 08:27:34;;;;;;;44.47;23.08;;;;;;;;;;5044703;28;20495;-73
2022/12/14 08:30:00;;;;;;;48.60;23.60;;;;;;;;;;5043920;28;20055;-72
2022/12/14 08:32:26;;;;;;;46.63;23.33;;;;;;;;;;5042471;28;20582;-73
2022/12/14 08:34:52;;;;;;;45.80;23.02;;;;;;;;;;5041109;28;20060;-71
2022/12/14 08:37:18;;;;;;;45.45;23.05;;;;;;;;;;5041168;28;20045;-70
2022/12/14 08:39:44;;;;;;;48.60;23.33;;;;;;;;;;5045480;28;20493;-71
2022/12/14 08:42:10;;;;;;;47.08;23.27;;;;;;;;;;5041901;28;20060;-71
2022/12/14 08:44:36;;;;;;;43.88;23.83;;;;;;;;;;5042624;28;20053;-69
2022/12/14 08:47:02;;;;;;;44.30;23.83;;;;;;;;;;5041929;28;20268;-72
2022/12/14 08:49:28;;;;;;;45.17;24.10;;;;;;;;;;5044016;28;20048;-73
2022/12/14 08:51:54;;;;;;;44.40;22.80;;;;;;;;;;5037857;28;20041;-73
2022/12/14 08:54:22;;;;;;;46.35;23.70;;;;;;;;;;5040751;28;20582;-72
2022/12/14 08:56:48;;;;;;;48.10;22.95;;;;;;;;;;5035330;28;20053;-72
2022/12/14 08:59:15;;;;;;;45.53;23.00;;;;;;;;;;5036532;28;20800;-72
2022/12/14 09:01:41;;;;;;;46.08;24.10;;;;;;;;;;5039885;28;20045;-72
2022/12/14 09:04:07;;;;;;;45.67;23.95;;;;;;;;;;5040791;28;20090;-71
2022/12/14 09:06:35;;;;;;;47.70;23.52;;;;;;;;;;5043350;28;20135;-71
2022/12/14 09:09:01;;;;;;;45.33;23.45;;;;;;;;;;5042517;28;20139;-72
2022/12/14 09:11:28;;;;;;;44.80;23.33;;;;;;;;;;5026349;28;20219;-73
2022/12/14 09:13:54;;;;;;;46.33;23.40;;;;;;;;;;5042394;28;20064;-73
2022/12/14 09:16:22;;;;;;;47.95;23.58;;;;;;;;;;5042894;28;20089;-72
2022/12/14 09:18:49;;;;;;;48.63;23.75;;;;;;;;;;5041577;28;20041;-72
2022/12/14 09:21:15;;;;;;;46.45;23.27;;;;;;;;;;5039358;28;20091;-73
2022/12/14 09:23:42;;;;;;;47.47;23.20;;;;;;;;;;5022034;28;20060;-70
2022/12/14 09:26:10;;;;;;;40.45;21.73;;;;;;;;;;5036490;28;20048;-72
2022/12/14 09:28:37;;;;;;;44.15;21.95;;;;;;;;;;5036884;28;20533;-71
2022/12/14 09:31:05;;;;;;;46.90;22.92;;;;;;;;;;5022007;28;20109;-72
2022/12/14 09:33:31;;;;;;;43.40;23.35;;;;;;;;;;5038778;28;20094;-73
2022/12/14 09:36:04;;;;;;;40.88;22.25;;;;;;;;;;5039899;28;20084;-74
2022/12/14 09:38:31;;;;;;;42.25;21.48;;;;;;;;;;5041122;28;20068;-72
2022/12/14 09:40:59;;;;;;;42.83;22.40;;;;;;;;;;5041062;28;20053;-74
2022/12/14 09:43:35;;;;;;;40.15;22.10;;;;;;;;;;5044597;28;20388;-74
2022/12/14 09:46:08;;;;;;;40.65;21.25;;;;;;;;;;5042552;28;20099;-74
2022/12/14 09:48:35;;;;;;;41.50;21.23;;;;;;;;;;5040528;28;20049;-71
2022/12/14 09:51:01;;;;;;;38.75;20.63;;;;;;;;;;5041170;28;20049;-72
2022/12/14 09:53:27;;;;;;;42.42;21.98;;;;;;;;;;5042872;28;20554;-73
2022/12/14 09:55:54;;;;;;;41.75;21.45;;;;;;;;;;5040813;28;20139;-73
2022/12/14 09:58:27;;;;;;;41.70;21.60;;;;;;;;;;5042238;28;20083;-71
2022/12/14 10:00:59;;;;;;;41.25;21.92;;;;;;;;;;5041331;28;20454;-72
2022/12/14 10:03:29;;;;;;;31.90;17.20;;;;;;;;;;5043837;28;20033;-72
2022/12/14 10:06:05;;;;;;;41.65;22.05;;;;;;;;;;5041384;28;20041;-73
2022/12/14 10:08:41;;;;;;;41.22;21.33;;;;;;;;;;5043064;28;20041;-74
2022/12/14 10:11:20;;;;;;;41.58;21.52;;;;;;;;;;5029609;28;20067;-74
2022/12/14 10:13:49;;;;;;;37.33;21.15;;;;;;;;;;5047338;28;20040;-73
2022/12/14 10:16:15;;;;;;;39.30;20.38;;;;;;;;;;5046239;28;20052;-74
2022/12/14 10:18:44;;;;;;;40.20;21.40;;;;;;;;;;5042738;28;21725;-74
2022/12/14 10:21:15;;;;;;;39.95;21.02;;;;;;;;;;5047808;28;20047;-72
2022/12/14 10:23:47;;;;;;;45.03;22.33;;;;;;;;;;5048289;28;20753;-74
2022/12/14 10:26:16;;;;;;;43.75;21.10;;;;;;;;;;5026853;28;20051;-74
2022/12/14 10:29:03;;;;;;;38.25;21.83;;;;;;;;;;5043910;28;20063;-73
2022/12/14 10:31:32;;;;;;;41.00;20.63;;;;;;;;;;5044725;28;20072;-72
2022/12/14 10:34:01;;;;;;;38.78;20.65;;;;;;;;;;5047371;28;20783;-73
2022/12/14 10:36:37;;;;;;;43.55;21.17;;;;;;;;;;5042100;28;20138;-72
2022/12/14 10:39:12;;;;;;;37.65;20.30;;;;;;;;;;5043360;28;20132;-72
2022/12/14 10:41:46;;;;;;;37.45;20.05;;;;;;;;;;5041222;28;20065;-72
2022/12/14 10:44:20;;;;;;;40.28;20.70;;;;;;;;;;5046270;28;20115;-72
2022/12/14 10:47:11;;;;;;;38.35;20.58;;;;;;;;;;5047451;28;20053;-72
2022/12/14 10:49:42;;;;;;;33.40;19.70;;;;;;;;;;5045257;28;20044;-73
2022/12/14 10:52:13;;;;;;;33.55;18.65;;;;;;;;;;5046330;28;20083;-73
2022/12/14 10:54:44;;;;;;;35.00;18.67;;;;;;;;;;5047032;28;20049;-73
2022/12/14 10:57:17;;;;;;;34.17;19.20;;;;;;;;;;5048590;28;20140;-74
2022/12/14 10:59:44;;;;;;;36.17;19.23;;;;;;;;;;5044704;28;20047;-72
2022/12/14 11:02:29;;;;;;;34.40;18.85;;;;;;;;;;5039434;28;20459;-73
2022/12/14 11:04:55;;;;;;;36.90;19.55;;;;;;;;;;5042005;28;20053;-72
2022/12/14 11:07:26;;;;;;;34.42;18.92;;;;;;;;;;5049962;28;20480;-73
2022/12/14 11:09:52;;;;;;;39.40;19.70;;;;;;;;;;5051282;28;20389;-73
2022/12/14 11:12:23;;;;;;;32.67;18.90;;;;;;;;;;5045449;28;20044;-73
2022/12/14 11:14:51;;;;;;;37.40;20.20;;;;;;;;;;5052111;28;20060;-73
2022/12/14 11:17:35;;;;;;;37.25;20.17;;;;;;;;;;5049159;28;20056;-73
2022/12/14 11:20:11;;;;;;;36.28;20.92;;;;;;;;;;5045842;28;20037;-73
2022/12/14 11:22:47;;;;;;;37.15;21.45;;;;;;;;;;5050995;28;20053;-73
2022/12/14 11:25:40;;;;;;;35.28;20.50;;;;;;;;;;5043875;28;20045;-74
2022/12/14 11:28:15;;;;;;;37.95;21.50;;;;;;;;;;5025317;28;20049;-74
2022/12/14 11:30:51;;;;;;;34.50;19.23;;;;;;;;;;5050500;28;20069;-73
2022/12/14 11:33:18;;;;;;;36.75;21.10;;;;;;;;;;5027482;28;20399;-76
2022/12/14 11:35:53;;;;;;;35.65;20.25;;;;;;;;;;5042454;28;20686;-75
2022/12/14 11:38:19;;;;;;;33.63;19.00;;;;;;;;;;5043769;28;20053;-75
2022/12/14 11:40:45;;;;;;;32.95;19.23;;;;;;;;;;5045292;28;20398;-76
2022/12/14 11:43:24;;;;;;;31.85;18.35;;;;;;;;;;5043774;28;20048;-75
2022/12/14 11:45:50;;;;;;;29.02;16.80;;;;;;;;;;5049646;28;20055;-75
2022/12/14 11:48:19;;;;;;;30.85;17.40;;;;;;;;;;5047779;28;20045;-76
2022/12/14 11:50:46;;;;;;;27.83;16.83;;;;;;;;;;5048514;28;20449;-76
2022/12/14 11:53:14;;;;;;;26.27;15.77;;;;;;;;;;5045057;28;20179;-74
2022/12/14 11:56:00;;;;;;;28.20;16.05;;;;;;;;;;5028155;28;20045;-75
2022/12/14 11:58:52;;;;;;;29.65;15.20;;;;;;;;;;5047138;28;20037;-75
2022/12/14 12:01:23;;;;;;;28.15;16.60;;;;;;;;;;5045931;28;20164;-74
2022/12/14 12:03:50;;;;;;;25.02;16.17;;;;;;;;;;5051440;28;20037;-74
2022/12/14 12:06:21;;;;;;;30.05;17.35;;;;;;;;;;5049804;28;20048;-74
2022/12/14 12:08:52;;;;;;;29.67;18.52;;;;;;;;;;5032607;28;20499;-74
2022/12/14 12:11:20;;;;;;;27.60;16.42;;;;;;;;;;5050457;28;20070;-76
2022/12/14 12:13:50;;;;;;;28.80;18.33;;;;;;;;;;5053022;28;20072;-73
2022/12/14 12:16:21;;;;;;;26.88;17.42;;;;;;;;;;5022940;28;20488;-75
2022/12/14 12:19:01;;;;;;;25.20;16.10;;;;;;;;;;5037716;28;20072;-73
2022/12/14 12:21:28;;;;;;;23.33;15.25;;;;;;;;;;5038723;28;20049;-75
2022/12/14 12:24:00;;;;;;;24.92;15.35;;;;;;;;;;5028741;28;20072;-74
2022/12/14 12:26:39;;;;;;;25.13;15.02;;;;;;;;;;5047345;28;20045;-74
2022/12/14 12:29:14;;;;;;;30.27;17.88;;;;;;;;;;5041474;28;20747;-74
2022/12/14 12:31:43;;;;;;;20.17;12.80;;;;;;;;;;5029580;28;20044;-72
2022/12/14 12:34:30;;;;;;;21.90;13.85;;;;;;;;;;5040406;28;20492;-73
2022/12/14 12:36:57;;;;;;;22.92;14.52;;;;;;;;;;5042590;28;20045;-74
2022/12/14 12:39:24;;;;;;;23.38;15.23;;;;;;;;;;5045441;28;20041;-74
2022/12/14 12:42:09;;;;;;;24.17;15.45;;;;;;;;;;5044838;28;20051;-74
2022/12/14 12:44:54;;;;;;;24.65;15.07;;;;;;;;;;5023546;28;20041;-74
2022/12/14 12:47:27;;;;;;;21.60;14.25;;;;;;;;;;5038120;28;20041;-74
2022/12/14 12:49:54;;;;;;;;;;;;;;;;;;5041933;28;20262;-74
2022/12/14 12:52:30;;;;;;;19.90;13.23;;;;;;;;;;5043376;28;19924;-74
2022/12/14 12:55:01;;;;;;;21.65;13.43;;;;;;;;;;5042972;28;20124;-71
2022/12/14 12:57:32;;;;;;;20.30;13.27;;;;;;;;;;5025308;28;20095;-73
2022/12/14 12:59:59;;;;;;;21.17;14.05;;;;;;;;;;5045396;28;20080;-74
2022/12/14 13:02:29;;;;;;;19.42;13.88;;;;;;;;;;5043132;28;20037;-74
2022/12/14 13:04:56;;;;;;;21.15;13.77;;;;;;;;;;5039118;28;20045;-73
2022/12/14 13:07:29;;;;;;;23.33;14.93;;;;;;;;;;5047007;28;20442;-73
2022/12/14 13:09:58;;;;;;;21.30;13.82;;;;;;;;;;5032556;28;20064;-71
2022/12/14 13:12:28;;;;;;;19.50;13.02;;;;;;;;;;5046493;28;20136;-73
2022/12/14 13:14:54;;;;;;;18.52;12.98;;;;;;;;;;5049041;28;20052;-71
2022/12/14 13:17:20;;;;;;;16.92;12.10;;;;;;;;;;5044322;28;20045;-72
2022/12/14 13:19:48;;;;;;;15.82;10.98;;;;;;;;;;5043363;28;20132;-71
2022/12/14 13:22:25;;;;;;;16.27;11.32;;;;;;;;;;5047856;28;20045;-71
2022/12/14 13:24:52;;;;;;;16.75;12.20;;;;;;;;;;5049787;28;20049;-72
2022/12/14 13:27:33;;;;;;;16.45;11.30;;;;;;;;;;5046638;28;20570;-71
2022/12/14 13:30:18;;;;;;;20.52;12.07;;;;;;;;;;5039688;28;20076;-73
2022/12/14 13:32:53;;;;;;;18.38;12.40;;;;;;;;;;5048106;28;20057;-73
2022/12/14 13:35:38;;;;;;;18.10;12.20;;;;;;;;;;5030373;28;20068;-72
2022/12/14 13:38:23;;;;;;;17.73;11.85;;;;;;;;;;5031177;28;20059;-73
2022/12/14 13:41:00;;;;;;;19.52;12.27;;;;;;;;;;5040908;28;20094;-73
2022/12/14 13:43:26;;;;;;;19.83;12.05;;;;;;;;;;5043846;28;20036;-70
2022/12/14 13:45:54;;;;;;;19.55;12.65;;;;;;;;;;5045605;28;20055;-70
2022/12/14 13:48:24;;;;;;;19.17;12.38;;;;;;;;;;5043542;28;20052;-73
2022/12/14 13:50:55;;;;;;;19.17;12.73;;;;;;;;;;5041575;28;20132;-73
2022/12/14 13:53:28;;;;;;;19.60;12.93;;;;;;;;;;5048265;28;20041;-70
2022/12/14 13:55:55;;;;;;;17.90;12.63;;;;;;;;;;5042283;28;20068;-71
2022/12/14 13:58:30;;;;;;;19.55;12.45;;;;;;;;;;5044264;28;20387;-73
2022/12/14 14:01:00;;;;;;;20.95;14.07;;;;;;;;;;5027785;28;20110;-72
2022/12/14 14:03:36;;;;;;;18.67;13.32;;;;;;;;;;5045592;28;20037;-72
2022/12/14 14:06:11;;;;;;;23.67;14.43;;;;;;;;;;5046942;28;20053;-73
2022/12/14 14:08:41;;;;;;;20.40;13.55;;;;;;;;;;5030975;28;20064;-73
2022/12/14 14:11:20;;;;;;;22.13;14.55;;;;;;;;;;5048507;28;20711;-73
2022/12/14 14:13:46;;;;;;;19.95;13.82;;;;;;;;;;5043566;28;20136;-72
2022/12/14 14:16:14;;;;;;;21.00;14.50;;;;;;;;;;5047482;28;20074;-72
2022/12/14 14:18:54;;;;;;;23.48;14.93;;;;;;;;;;5041829;28;20057;-73
2022/12/14 14:21:20;;;;;;;24.73;14.63;;;;;;;;;;5046496;28;20053;-72
2022/12/14 14:23:55;;;;;;;22.60;14.32;;;;;;;;;;5043889;28;20128;-72
2022/12/14 14:26:32;;;;;;;22.58;14.82;;;;;;;;;;5047849;28;20045;-73
2022/12/14 14:29:04;;;;;;;25.58;15.20;;;;;;;;;;5047683;28;20049;-72
2022/12/14 14:31:44;;;;;;;24.15;14.95;;;;;;;;;;5044002;28;20140;-72
2022/12/14 14:34:15;;;;;;;24.40;15.50;;;;;;;;;;5045735;28;20045;-71
2022/12/14 14:36:43;;;;;;;22.10;14.45;;;;;;;;;;5041380;28;20068;-72
2022/12/14 14:39:27;;;;;;;24.15;16.00;;;;;;;;;;5044151;28;20094;-72
2022/12/14 14:41:54;;;;;;;22.70;15.38;;;;;;;;;;5052630;28;20045;-72
2022/12/14 14:44:40;;;;;;;23.00;15.27;;;;;;;;;;5046774;28;20420;-73
2022/12/14 14:47:33;;;;;;;25.52;16.42;;;;;;;;;;5044119;28;20048;-72
2022/12/14 14:50:00;;;;;;;24.75;16.45;;;;;;;;;;5049204;28;20802;-72